createdAt,value
2023-02-21T00:02:27.645Z,11.72
2023-02-21T00:06:20.301Z,11.71
2023-02-21T00:09:10.561Z,11.26
2023-02-21T00:12:17.278Z,11.73
2023-02-21T00:15:30.193Z,11.74
2023-02-21T00:18:41.548Z,11.92
2023-02-21T00:21:54.767Z,12.38
2023-02-21T00:25:03.596Z,12.46
2023-02-21T00:28:20.102Z,12.10
2023-02-21T00:38:14.189Z,11.49
2023-02-21T00:44:39.160Z,12.22
2023-02-21T00:47:44.551Z,12.01
2023-02-21T00:50:51.204Z,11.87
2023-02-21T00:53:55.993Z,11.46
2023-02-21T00:57:01.698Z,11.73
2023-02-21T01:00:16.204Z,11.55
2023-02-21T01:03:20.403Z,12.07
2023-02-21T01:06:24.432Z,11.35
2023-02-21T01:09:35.031Z,12.03
2023-02-21T01:12:40.794Z,11.66
2023-02-21T01:15:49.387Z,11.30
2023-02-21T01:18:53.938Z,11.80
2023-02-21T01:21:58.131Z,11.45
2023-02-21T01:25:06.036Z,11.52
2023-02-21T01:28:10.086Z,11.22
2023-02-21T01:31:14.638Z,11.40
2023-02-21T01:34:19.080Z,11.65
2023-02-21T01:37:27.854Z,11.71
2023-02-21T01:40:34.567Z,11.78
2023-02-21T01:43:39.940Z,11.18
2023-02-21T01:46:45.338Z,11.26
2023-02-21T01:49:50.045Z,11.34
2023-02-21T01:52:58.456Z,11.34
2023-02-21T01:56:02.643Z,10.97
2023-02-21T01:59:10.872Z,11.22
2023-02-21T02:02:19.143Z,11.26
2023-02-21T02:05:23.336Z,11.36
2023-02-21T02:08:27.594Z,11.25
2023-02-21T02:11:45.558Z,11.48
2023-02-21T02:14:52.881Z,11.02
2023-02-21T02:17:58.147Z,11.43
2023-02-21T02:21:03.764Z,11.90
2023-02-21T02:24:07.887Z,11.53
2023-02-21T02:27:12.993Z,11.44
2023-02-21T02:30:17.465Z,11.21
2023-02-21T02:33:22.813Z,11.16
2023-02-21T02:36:27.052Z,11.30
2023-02-21T02:39:31.162Z,11.46
2023-02-21T02:42:36.912Z,11.41
2023-02-21T02:45:42.449Z,10.94
2023-02-21T02:48:46.949Z,11.27
2023-02-21T02:51:51.569Z,11.63
2023-02-21T02:54:57.561Z,11.42
2023-02-21T02:58:03.238Z,11.77
2023-02-21T03:04:31.688Z,11.67
2023-02-21T03:07:36.664Z,11.27
2023-02-21T03:10:40.771Z,11.60
2023-02-21T03:13:46.003Z,11.63
2023-02-21T03:16:50.471Z,11.73
2023-02-21T03:19:54.863Z,11.71
2023-02-21T03:22:58.889Z,11.94
2023-02-21T03:26:05.629Z,11.69
2023-02-21T03:29:12.527Z,11.86
2023-02-21T03:32:19.154Z,12.39
2023-02-21T03:35:23.339Z,12.43
2023-02-21T03:38:32.047Z,12.08
2023-02-21T03:41:37.666Z,12.17
2023-02-21T03:44:46.145Z,11.55
2023-02-21T03:47:58.333Z,11.44
2023-02-21T03:51:05.496Z,11.42
2023-02-21T03:57:32.327Z,11.46
2023-02-21T04:00:36.312Z,11.37
2023-02-21T04:03:41.928Z,11.57
2023-02-21T04:06:48.412Z,11.86
2023-02-21T04:09:53.929Z,11.55
2023-02-21T04:12:59.415Z,11.90
2023-02-21T04:16:06.538Z,11.46
2023-02-21T04:19:14.766Z,11.99
2023-02-21T04:22:18.758Z,12.04
2023-02-21T04:25:25.543Z,12.62
2023-02-21T04:28:30.350Z,12.57
2023-02-21T04:31:36.315Z,12.72
2023-02-21T04:34:52.446Z,12.98
2023-02-21T04:38:03.183Z,12.89
2023-02-21T04:41:08.346Z,12.78
2023-02-21T04:44:28.312Z,12.99
2023-02-21T04:47:32.466Z,12.91
2023-02-21T04:50:39.976Z,12.86
2023-02-21T04:53:45.376Z,12.83
2023-02-21T04:56:57.141Z,13.31
2023-02-21T05:00:02.527Z,13.04
2023-02-21T05:03:17.471Z,12.99
2023-02-21T05:06:25.701Z,13.02
2023-02-21T05:09:33.828Z,12.46
2023-02-21T05:12:42.209Z,13.34
2023-02-21T05:15:47.663Z,13.90
2023-02-21T05:19:00.751Z,14.06
2023-02-21T05:22:12.466Z,13.79
2023-02-21T05:25:18.663Z,14.20
2023-02-21T05:28:23.430Z,14.46
2023-02-21T05:31:31.688Z,14.28
2023-02-21T05:34:48.270Z,13.52
2023-02-21T05:38:02.281Z,13.97
2023-02-21T05:41:13.922Z,14.12
2023-02-21T05:44:33.270Z,13.72
2023-02-21T05:47:41.170Z,13.69
2023-02-21T05:50:51.760Z,13.63
2023-02-21T05:53:58.072Z,13.78
2023-02-21T05:57:06.137Z,13.27
2023-02-21T06:00:15.926Z,13.29
2023-02-21T06:03:26.240Z,13.19
2023-02-21T06:06:31.877Z,13.39
2023-02-21T06:09:44.710Z,13.20
2023-02-21T06:13:10.921Z,13.44
2023-02-21T06:16:16.311Z,13.36
2023-02-21T06:19:24.210Z,12.89
2023-02-21T06:22:37.576Z,12.43
2023-02-21T06:25:45.045Z,12.63
2023-02-21T06:32:21.796Z,13.56
2023-02-21T06:35:27.314Z,12.39
2023-02-21T06:38:36.291Z,13.18
2023-02-21T06:41:44.014Z,12.96
2023-02-21T06:44:52.550Z,12.68
2023-02-21T06:47:59.784Z,12.66
2023-02-21T07:00:09.441Z,13.18
2023-02-21T10:25:55.221Z,18.79
2023-02-21T10:53:36.808Z,18.04
2023-02-21T11:13:42.505Z,18.91
2023-02-21T11:16:50.798Z,19.12
2023-02-21T11:27:03.499Z,19.89
2023-02-21T11:42:48.659Z,21.29
2023-02-21T16:55:24.960Z,18.32
2023-02-21T16:58:51.253Z,17.92
2023-02-21T17:05:32.614Z,17.81
2023-02-21T17:15:45.608Z,17.12
2023-02-21T17:22:21.651Z,17.40
2023-02-21T19:04:37.723Z,18.05
2023-02-21T19:35:49.954Z,19.57
2023-02-21T23:43:54.529Z,18.98
2023-02-21T23:47:03.186Z,18.87
2023-02-21T23:50:07.268Z,18.80
2023-02-21T23:54:47.121Z,19.25
2023-02-21T23:56:59.127Z,19.19
